• Join FlightAware (Why Join?)
  • Login
  • US Flag 
08:53PM EDT


 

Airport Tracker/Info


-or-


 

Live Flight TrackerFlight Track Log ✈ N682RW ✈ 11-May-2013 ✈ KDTW - KLGB

Flight Track Log - Related Links

Times and Time Zones

All times are in EDT time to prevent confusion due to time zone crossing. See the N682RW flight status page for this flight to view local times or setup timezone preferences in your user account.

Time Position Orientation Groundspeed Altitude Reporting Facility
EDT Latitude Longitude Course Direction KTS MPH feet Rate Location/Type
12:09PM 42.1697 -83.3847 230° Southwest 223 257 2,300  Level Cleveland Center
12:11PM 42.1175 -83.4692 230° Southwest 254 292 5,400 2,520 Climbing Cleveland Center
12:12PM 42.1342 -83.5569 284° West 266 306 8,000 2,340 Climbing Cleveland Center
12:13PM 42.1672 -83.6453 297° West 282 325 10,400 1,740 Climbing Cleveland Center
12:14PM 42.2147 -83.7400 304° West 288 331 11,800 1,920 Climbing Cleveland Center
12:15PM 42.2636 -83.8492 301° West 316 364 14,300 2,340 Climbing Cleveland Center
12:16PM 42.3147 -83.9558 303° West 333 383 16,500 2,220 Climbing Cleveland Center
12:17PM 42.3697 -84.0683 304° West 352 405 18,800 1,920 Climbing Cleveland Center
12:18PM 42.4311 -84.1786 307° West 359 413 20,400 1,560 Climbing Cleveland Center
12:19PM 42.4561 -84.3067 285° West 350 403 22,000 1,500 Climbing Cleveland Center
12:20PM 42.4372 -84.4378 259° West 341 392 23,500 1,440 Climbing Cleveland Center
12:21PM 42.4367 -84.5786 270° West 361 415 24,900 1,380 Climbing Cleveland Center
12:22PM 42.4408 -84.7042 273° West 375 432 26,200 1,380 Climbing Chicago Center
12:23PM 42.4436 -84.8464 272° West 377 434 27,600 1,320 Climbing Chicago Center
12:24PM 42.4475 -84.9889 272° West 379 436 29,000 1,500 Climbing Chicago Center
12:25PM 42.4503 -85.1561 271° West 373 429 30,700 1,320 Climbing Chicago Center
12:26PM 42.4533 -85.2922 272° West 364 419 31,800 600 Climbing Chicago Center
12:27PM 42.4553 -85.4278 271° West 361 415 32,000 60 Climbing Chicago Center
12:28PM 42.4583 -85.5692 272° West 371 427 32,000  Level Chicago Center
12:29PM 42.4606 -85.7075 271° West 369 425 32,000  Level Chicago Center
12:30PM 42.4619 -85.8461 271° West 368 423 32,000  Level Chicago Center
12:31PM 42.4644 -85.9847 271° West 368 423 32,000  Level Chicago Center
12:32PM 42.4628 -86.1219 269° West 365 420 32,000  Level Chicago Center
12:33PM 42.4433 -86.2839 261° West 362 417 32,000  Level Chicago Center
12:34PM 42.4264 -86.4169 260° West 358 412 32,000  Level Chicago Center
12:35PM 42.4089 -86.5517 260° West 362 417 32,000  Level Chicago Center
12:36PM 42.3925 -86.6864 261° West 363 418 32,000  Level Chicago Center
12:37PM 42.3764 -86.8186 261° West 361 415 32,000  Level Chicago Center
12:38PM 42.3589 -86.9514 260° West 360 414 32,000  Level Chicago Center
12:39PM 42.3403 -87.0808 259° West 355 409 32,000  Level Chicago Center
12:40PM 42.3192 -87.2383 260° West 357 411 32,000  Level Chicago Center
12:41PM 42.3019 -87.3706 260° West 360 414 32,000  Level Chicago Center
12:42PM 42.2833 -87.5011 259° West 358 412 32,000  Level Chicago Center
12:43PM 42.2658 -87.6314 260° West 356 410 32,000  Level Chicago Center
12:44PM 42.2469 -87.7625 259° West 358 412 32,000  Level Chicago Center
12:45PM 42.2292 -87.8936 260° West 358 412 32,000  Level Chicago Center
12:46PM 42.2033 -88.0525 258° West 362 417 32,000  Level Chicago Center
12:47PM 42.1800 -88.1836 257° West 363 418 32,000  Level Chicago Center
12:48PM 42.1569 -88.3181 257° West 369 425 32,000  Level Chicago Center
12:49PM 42.1319 -88.4517 256° West 371 427 32,000  Level Chicago Center
12:50PM 42.1081 -88.5856 257° West 372 428 32,000  Level Chicago Center
12:51PM 42.0797 -88.7467 257° West 374 430 32,000  Level Chicago Center
12:52PM 42.0553 -88.8811 256° West 374 430 32,000  Level Chicago Center
12:53PM 42.0297 -89.0153 256° West 373 429 32,000  Level Chicago Center
12:55PM 42.0047 -89.1500 256° West 375 432 32,000  Level Chicago Center
12:56PM 41.9794 -89.2864 256° West 378 435 32,000  Level Chicago Center
12:57PM 41.9539 -89.4208 256° West 376 433 32,000  Level Chicago Center
12:58PM 41.9236 -89.5839 256° West 378 435 32,000  Level Chicago Center
12:59PM 41.8981 -89.7189 256° West 377 434 32,000  Level Chicago Center
01:00PM 41.8728 -89.8536 256° West 375 432 32,000  Level Chicago Center
01:01PM 41.8472 -89.9925 256° West 387 445 32,000  Level Chicago Center
01:02PM 41.8200 -90.1289 255° West 386 444 32,000  Level Chicago Center
01:03PM 41.7981 -90.2672 258° West 383 441 32,000  Level Chicago Center
01:04PM 41.7778 -90.4342 261° West 382 440 32,000  Level Chicago Center
01:05PM 41.7575 -90.5722 259° West 382 440 32,000  Level Chicago Center
01:06PM 41.7406 -90.7103 261° West 380 437 32,000  Level Chicago Center
01:07PM 41.7214 -90.8483 260° West 379 436 32,000  Level Chicago Center
01:08PM 41.7014 -90.9869 259° West 379 436 32,000  Level Chicago Center
01:09PM 41.6800 -91.1297 259° West 387 445 32,000  Level Chicago Center
01:10PM 41.6606 -91.2697 260° West 386 444 32,000  Level Chicago Center
01:11PM 41.6367 -91.4361 259° West 384 442 32,000  Level Chicago Center
01:12PM 41.6153 -91.5769 259° West 389 448 32,000  Level Chicago Center
01:13PM 41.5947 -91.7164 259° West 386 444 32,000  Level Chicago Center
01:14PM 41.5739 -91.8561 259° West 385 443 32,000  Level Chicago Center
01:15PM 41.5531 -91.9961 259° West 387 445 32,000  Level Chicago Center
01:16PM 41.5308 -92.1392 258° West 392 451 32,000  Level Chicago Center
01:17PM 41.5056 -92.3078 259° West 390 449 32,000  Level Chicago Center
01:18PM 41.4842 -92.4414 258° West 389 448 32,000  Level Chicago Center
01:19PM 41.4617 -92.5831 258° West 393 452 32,000  Level Chicago Center
01:20PM 41.4400 -92.7233 258° West 391 450 32,000  Level Chicago Center
01:21PM 41.4131 -92.8919 258° West 393 452 32,000  Level Chicago Center
01:22PM 41.3906 -93.0344 258° West 395 455 32,000  Level Chicago Center
01:23PM 41.3686 -93.1756 258° West 395 455 32,000 60 Level Chicago Center
01:24PM 41.3444 -93.3178 257° West 398 458 32,200 420 Climbing Chicago Center
01:25PM 41.3208 -93.4606 258° West 400 460 32,900 780 Climbing Chicago Center
01:26PM 41.2936 -93.6297 258° West 396 456 33,900 720 Climbing Chicago Center
01:27PM 41.2844 -93.6844 257° West 393 452 34,000 60 Climbing Minneapolis Center
01:28PM 41.2611 -93.8242 258° West 392 451 34,000  Level Minneapolis Center
01:29PM 41.2392 -93.9639 258° West 391 450 34,000  Level Minneapolis Center
01:30PM 41.2144 -94.1047 257° West 394 453 34,000  Level Minneapolis Center
01:31PM 41.1875 -94.2564 257° West 394 453 34,000  Level Minneapolis Center
01:32PM 41.1636 -94.4003 258° West 397 457 34,000  Level Minneapolis Center
01:33PM 41.1372 -94.5556 257° West 395 455 34,000  Level Minneapolis Center
01:34PM 41.1136 -94.6842 256° West 396 456 34,000  Level Minneapolis Center
01:35PM 41.0831 -94.8556 257° West 398 458 34,000  Level Minneapolis Center
01:36PM 41.0583 -94.9983 257° West 398 458 34,000  Level Minneapolis Center
01:37PM 41.0314 -95.1419 256° West 400 460 34,000  Level Minneapolis Center
01:38PM 41.0056 -95.2858 257° West 401 461 34,000  Level Minneapolis Center
01:39PM 40.9792 -95.4297 256° West 400 460 34,000  Level Minneapolis Center
01:40PM 40.9525 -95.5739 256° West 401 461 34,000  Level Minneapolis Center
01:41PM 40.9253 -95.7169 256° West 399 459 34,000  Level Minneapolis Center
01:42PM 40.8989 -95.8633 257° West 404 465 34,000  Level Minneapolis Center
01:43PM 40.8711 -96.0069 256° West 402 463 34,000  Level Minneapolis Center
01:44PM 40.8433 -96.1519 256° West 404 465 34,000  Level Minneapolis Center
01:45PM 40.8106 -96.3278 256° West 408 470 34,000  Level Minneapolis Center
01:46PM 40.7822 -96.4744 256° West 410 472 34,000  Level Minneapolis Center
01:47PM 40.7536 -96.6197 255° West 409 471 34,000  Level Minneapolis Center
01:48PM 40.7256 -96.7658 256° West 410 472 34,000  Level Minneapolis Center
01:49PM 40.6964 -96.9133 255° West 414 476 34,000  Level Minneapolis Center
01:50PM 40.6669 -97.0578 255° West 410 472 34,000  Level Minneapolis Center
01:51PM 40.6386 -97.2036 256° West 411 473 34,000  Level Minneapolis Center
01:52PM 40.6047 -97.3686 255° West 416 479 34,000  Level Minneapolis Center
01:54PM 40.5750 -97.5136 255° West 412 474 34,000  Level Minneapolis Center
01:55PM 40.5397 -97.6875 255° West 410 472 34,000  Level Minneapolis Center
01:56PM 40.5100 -97.8336 255° West 412 474 34,000  Level Minneapolis Center
01:57PM 40.4797 -97.9806 255° West 414 476 34,000  Level Minneapolis Center
01:58PM 40.4483 -98.1275 254° West 416 479 34,000  Level Minneapolis Center
01:59PM 40.4172 -98.2728 254° West 413 475 34,000  Level Minneapolis Center
02:00PM 40.3803 -98.4469 254° West 412 474 34,000  Level Minneapolis Center
02:01PM 40.3500 -98.5917 255° West 411 473 34,000  Level Minneapolis Center
02:02PM 40.3181 -98.7367 254° West 411 473 34,000  Level Minneapolis Center
02:03PM 40.2867 -98.8831 254° West 414 476 34,000  Level Minneapolis Center
02:04PM 40.2608 -99.0028 254° West 421 484 34,000  Level Denver Center
02:05PM 40.2278 -99.1494 254° West 420 483 34,000  Level Denver Center
02:06PM 40.1958 -99.2967 254° West 420 483 34,000  Level Denver Center
02:07PM 40.1628 -99.4444 254° West 421 484 34,000  Level Denver Center
02:08PM 40.1361 -99.5639 254° West 425 489 34,000  Level Denver Center
02:09PM 40.0958 -99.7406 253° West 421 484 34,000  Level Denver Center
02:10PM 40.0692 -99.8583 254° West 422 486 34,000  Level Denver Center
02:11PM 40.0222 -100.0653 254° West 424 488 34,000  Level Denver Center
02:12PM 39.9869 -100.2133 253° West 426 490 34,000  Level Denver Center
02:13PM 39.9564 -100.3506 254° West 426 490 34,000  Level Denver Center
02:14PM 39.9181 -100.5181 253° West 430 495 34,000  Level Denver Center
02:15PM 39.8828 -100.6608 252° West 431 496 34,000  Level Denver Center
02:16PM 39.8444 -100.8294 254° West 433 498 34,000  Level Denver Center
02:17PM 39.8089 -100.9739 252° West 436 502 34,000  Level Denver Center
02:18PM 39.7692 -101.1417 253° West 435 501 34,000  Level Denver Center
02:19PM 39.7344 -101.2867 253° West 435 501 34,000  Level Denver Center
02:20PM 39.6997 -101.4311 253° West 440 506 34,000  Level Denver Center
02:21PM 39.6578 -101.5983 252° West 436 502 34,000  Level Denver Center
02:22PM 39.6219 -101.7453 252° West 444 511 34,000  Level Denver Center
02:23PM 39.5794 -101.9139 252° West 442 509 34,000  Level Denver Center
02:24PM 39.5442 -102.0606 253° West 446 513 34,000  Level Denver Center
02:26PM 39.5019 -102.2308 252° West 445 512 34,000  Level Denver Center
02:27PM 39.4586 -102.4014 252° West 446 513 34,000  Level Denver Center
02:28PM 39.4150 -102.5717 252° West 447 514 34,000  Level Denver Center
02:29PM 39.3717 -102.7347 251° West 448 516 34,000  Level Denver Center
02:30PM 39.3342 -102.8811 252° West 448 516 34,000  Level Denver Center
02:31PM 39.2953 -103.0283 251° West 451 519 34,000  Level Denver Center
02:32PM 39.2500 -103.2022 251° West 456 525 34,000 240 Level Denver Center
02:33PM 39.2119 -103.3497 252° West 455 524 34,500 540 Climbing Denver Center
02:34PM 39.1672 -103.5244 252° West 459 528 35,200 660 Climbing Denver Center
02:35PM 39.1272 -103.6681 250° West 450 518 35,900 360 Climbing Denver Center
02:36PM 39.0825 -103.8358 251° West 446 513 36,000  Climbing Denver Center
02:37PM 39.0428 -103.9850 251° West 455 524 36,000  Level Denver Center
02:38PM 39.0025 -104.1328 251° West 458 527 36,000  Level Denver Center
02:39PM 38.9486 -104.3308 251° West 460 529 36,000  Level Denver Center
02:40PM 38.9014 -104.5042 251° West 461 531 36,000  Level Denver Center
02:41PM 38.8594 -104.6497 250° West 457 526 36,000  Level Denver Center
02:42PM 38.8208 -104.7958 251° West 454 522 36,000  Level Denver Center
02:43PM 38.7731 -104.9661 250° West 456 525 36,000  Level Denver Center
02:44PM 38.7311 -105.1133 250° West 459 528 36,000  Level Denver Center
02:45PM 38.6958 -105.2378 250° West 463 533 36,000  Level Denver Center
02:46PM 38.6403 -105.4328 250° West 460 529 36,000  Level Denver Center
02:47PM 38.5914 -105.6039 250° West 460 529 36,000  Level Denver Center
02:48PM 38.5503 -105.7508 250° West 460 529 36,000  Level Denver Center
02:49PM 38.5078 -105.8967 250° West 460 529 36,000  Level Denver Center
02:50PM 38.4564 -106.0681 249° West 462 532 36,000  Level Denver Center
02:51PM 38.4172 -106.2017 250° West 462 532 36,000  Level Denver Center
02:53PM 38.3639 -106.3839 250° West 457 526 36,000  Level Denver Center
02:54PM 38.3200 -106.5258 249° West 462 532 36,000  Level Denver Center
02:55PM 38.2706 -106.6939 250° West 457 526 36,000  Level Denver Center
02:56PM 38.2275 -106.8389 249° West 457 526 36,000  Level Denver Center
02:57PM 38.1800 -106.9914 248° West 458 527 36,000  Level Denver Center
02:58PM 38.1353 -107.1414 249° West 452 520 36,000  Level Denver Center
02:59PM 38.0883 -107.2958 249° West 458 527 36,000  Level Denver Center
03:00PM 38.0361 -107.4675 249° West 455 524 36,000  Level Denver Center
03:01PM 37.9914 -107.6106 248° West 458 527 36,000  Level Denver Center
03:02PM 37.9467 -107.7533 248° West 456 525 36,000  Level Denver Center
03:03PM 37.8944 -107.9208 248° West 458 527 36,000  Level Denver Center
03:04PM 37.8492 -108.0639 248° West 458 527 36,000  Level Denver Center
03:05PM 37.7964 -108.2336 249° West 464 534 36,000  Level Denver Center
03:06PM 37.7508 -108.3775 248° West 464 534 36,000  Level Denver Center
03:07PM 37.6969 -108.5456 248° West 462 532 36,000  Level Denver Center
03:08PM 37.6508 -108.6911 248° West 466 536 36,000  Level Denver Center
03:09PM 37.6044 -108.8342 248° West 462 532 36,000  Level Denver Center
03:10PM 37.5503 -108.9983 247° West 457 526 36,000  Level Denver Center
03:11PM 37.5044 -109.1417 248° West 461 531 36,000  Level Denver Center
03:12PM 37.4492 -109.3083 247° West 462 532 36,000  Level Denver Center
03:13PM 37.4025 -109.4511 248° West 463 533 36,000  Level Denver Center
03:14PM 37.3469 -109.6175 247° West 463 533 36,000  Level Denver Center
03:15PM 37.2989 -109.7619 247° West 468 539 36,000  Level Denver Center
03:16PM 37.2506 -109.9050 247° West 467 537 36,000  Level Denver Center
03:17PM 37.1950 -110.0714 247° West 462 532 36,000  Level Denver Center
03:18PM 37.1472 -110.2158 248° West 467 537 36,000  Level Denver Center
03:19PM 37.0956 -110.3656 247° West 467 537 36,000  Level Denver Center
03:20PM 37.0436 -110.5161 247° West 469 540 36,000  Level Denver Center
03:21PM 36.9819 -110.6972 247° West 471 542 36,000  Level Denver Center
03:22PM 36.9289 -110.8475 246° West 474 545 36,000  Level Denver Center
03:23PM 36.8772 -110.9972 247° West 472 543 36,000  Level Denver Center
03:24PM 36.8264 -111.1461 247° West 468 539 36,000  Level Denver Center
03:25PM 36.7747 -111.2950 247° West 466 536 36,000  Level Denver Center
03:26PM 36.7214 -111.4458 246° West 471 542 36,000  Level Denver Center
03:27PM 36.6681 -111.5958 246° West 474 545 36,000  Level Denver Center
03:28PM 36.6136 -111.7456 246° West 473 544 36,000  Level Denver Center
03:29PM 36.5467 -111.9281 246° West 476 548 36,000  Level Los Angeles Center
03:31PM 36.4922 -112.0797 246° West 478 550 36,000  Level Los Angeles Center
03:32PM 36.4375 -112.2319 246° West 481 554 36,000  Level Los Angeles Center
03:33PM 36.3819 -112.3833 246° West 480 552 36,000  Level Los Angeles Center
03:34PM 36.3272 -112.5347 246° West 480 552 36,000  Level Los Angeles Center
03:35PM 36.2722 -112.6861 246° West 481 554 36,000  Level Los Angeles Center
03:36PM 36.2150 -112.8367 245° Southwest 481 554 36,000  Level Los Angeles Center
03:37PM 36.1492 -113.0158 246° West 477 549 36,000  Level Los Angeles Center
03:38PM 36.0933 -113.1683 246° West 483 556 36,000  Level Los Angeles Center
03:39PM 36.0383 -113.3153 245° Southwest 481 554 36,000  Level Los Angeles Center
03:40PM 35.9811 -113.4658 245° Southwest 481 554 36,000  Level Los Angeles Center
03:41PM 35.9250 -113.6164 245° Southwest 483 556 36,000  Level Los Angeles Center
03:42PM 35.8667 -113.7661 244° Southwest 483 556 36,000  Level Los Angeles Center
03:43PM 35.7989 -113.9478 245° Southwest 484 557 36,000  Level Los Angeles Center
03:44PM 35.7400 -114.1008 245° Southwest 490 564 36,000  Level Los Angeles Center
03:45PM 35.6814 -114.2519 245° Southwest 488 562 36,000  Level Los Angeles Center
03:46PM 35.6228 -114.4022 244° Southwest 488 562 36,000  Level Los Angeles Center
03:47PM 35.5636 -114.5550 245° Southwest 491 565 36,000  Level Los Angeles Center
03:48PM 35.5042 -114.7056 244° Southwest 490 564 36,000  Level Los Angeles Center
03:49PM 35.4439 -114.8583 244° Southwest 493 567 36,000  Level Los Angeles Center
03:50PM 35.3731 -115.0397 244° Southwest 491 565 36,000 -480 Level Los Angeles Center
03:51PM 35.3122 -115.1914 244° Southwest 493 567 35,100 -1,020 Descending Los Angeles Center
03:52PM 35.2528 -115.3422 244° Southwest 492 566 34,000 -1,140 Descending Los Angeles Center
03:53PM 35.1883 -115.5050 244° Southwest 501 577 32,800 -960 Descending Los Angeles Center
03:54PM 35.1269 -115.6578 244° Southwest 502 578 32,000 -420 Descending Los Angeles Center
03:55PM 35.0656 -115.8094 244° Southwest 500 575 32,000 -180 Level Los Angeles Center
03:56PM 35.0039 -115.9611 244° Southwest 500 575 31,700 -1,260 Descending Los Angeles Center
03:57PM 34.9414 -116.1128 243° Southwest 501 577 29,400 -2,520 Descending Los Angeles Center
03:58PM 34.8800 -116.2622 243° Southwest 496 571 26,500 -2,940 Descending Los Angeles Center
03:59PM 34.8086 -116.4361 243° Southwest 480 552 23,400 -2,580 Descending Los Angeles Center
04:01PM 34.7258 -116.5525 229° Southwest 459 528 20,700 -2,460 Descending Los Angeles Center
04:02PM 34.6200 -116.6781 224° Southwest 443 510 17,800 -2,460 Descending Los Angeles Center
04:03PM 34.5386 -116.7794 226° Southwest 424 488 15,600 -1,980 Descending Los Angeles Center
04:04PM 34.4589 -116.8747 225° Southwest 406 467 13,800 -1,260 Descending Los Angeles Center
04:05PM 34.3803 -116.9700 225° Southwest 403 464 13,100 -360 Descending Los Angeles Center
04:06PM 34.2883 -117.0831 225° Southwest 395 455 13,100  Level Los Angeles Center
04:07PM 34.1931 -117.1403 206° Southwest 389 448 13,100 -60 Level Los Angeles Center
04:08PM 34.0833 -117.2000 204° Southwest 359 413 13,000 -480 Descending Southern California TRACON
04:09PM 33.9833 -117.2500 203° Southwest 360 414 12,000 -1,200 Descending Southern California TRACON
04:10PM 33.8833 -117.3000 203° Southwest 342 394 10,600 -1,200 Descending Southern California TRACON
04:11PM 33.8508 -117.3472 230° Southwest 328 377 9,600 -1,200 Descending Los Angeles Center
04:12PM 33.8217 -117.4542 252° West 285 328 8,200 -780 Descending Los Angeles Center
04:13PM 33.7975 -117.5325 250° West 259 298 8,000 -480 Descending Los Angeles Center
04:14PM 33.7706 -117.6242 251° West 246 283 7,300 -780 Descending Los Angeles Center
04:15PM 33.7500 -117.6833 247° West 244 281 6,600 -900 Descending Southern California TRACON
04:16PM 33.7167 -117.7667 244° Southwest 240 276 5,600 -1,020 Descending Southern California TRACON
04:17PM 33.7000 -117.8333 253° West 236 272 4,600 -840 Descending Southern California TRACON
04:18PM 33.6833 -117.9167 257° West 227 261 4,000 -300 Descending Southern California TRACON
04:19PM 33.6500 -117.9667 231° Southwest 196 226 4,000 -600 Level Southern California TRACON
04:20PM 33.6167 -118.0167 231° Southwest 186 214 2,800 -1,260 Descending Southern California TRACON
04:21PM 33.6139 -118.0331 259° West 196 226 2,400 -1,140 Descending Los Angeles Center
04:21PM 33.6333 -118.0667 305° West 189 217 1,700 -480 Descending Southern California TRACON
04:22PM 33.6833 -118.0667 360° North 178 205 1,600  Descending Southern California TRACON
04:23PM 33.7333 -118.0667 360° North 170 196 1,700 -300 Climbing Southern California TRACON
04:24PM 33.7667 -118.1000 320° Northwest 144 166 1,100 -720 Descending Southern California TRACON
04:25PM 33.8000 -118.1333 320° Northwest 144 166 300 -660 Descending Southern California TRACON
04:26PM 33.8156 -118.1458 326° Northwest 145 167 200 -240 Descending Los Angeles Center
04:28PM 33.8167 -118.1500 292° West  Level FlightAware Approximate
04:35PM 33.8177 -118.1517 292° West  Level Estimated